sensor_id;sensor_type;location;lat;lon;timestamp;pressure;altitude;pressure_sealevel;temperature;humidity
19777;BME280;10047;42.490;26.012;2023-01-28T00:00:26;99176.56;;;3.41;100.00
19777;BME280;10047;42.490;26.012;2023-01-28T00:02:52;99335.41;;;4.32;100.00
19777;BME280;10047;42.490;26.012;2023-01-28T00:05:18;99340.41;;;4.35;100.00
19777;BME280;10047;42.490;26.012;2023-01-28T00:07:43;99235.66;;;3.71;100.00
19777;BME280;10047;42.490;26.012;2023-01-28T00:10:09;99268.22;;;3.80;100.00
19777;BME280;10047;42.490;26.012;2023-01-28T00:12:35;99339.72;;;4.23;100.00
19777;BME280;10047;42.490;26.012;2023-01-28T00:15:00;99294.66;;;4.06;100.00
19777;BME280;10047;42.490;26.012;2023-01-28T00:17:25;99244.97;;;3.64;100.00
19777;BME280;10047;42.490;26.012;2023-01-28T00:19:51;99285.09;;;3.70;100.00
19777;BME280;10047;42.490;26.012;2023-01-28T00:22:16;99326.72;;;3.91;100.00
19777;BME280;10047;42.490;26.012;2023-01-28T00:24:42;99348.34;;;4.02;100.00
19777;BME280;10047;42.490;26.012;2023-01-28T00:27:07;99350.81;;;4.10;100.00
19777;BME280;10047;42.490;26.012;2023-01-28T00:29:33;99276.09;;;3.53;100.00
19777;BME280;10047;42.490;26.012;2023-01-28T00:31:58;99276.88;;;3.54;100.00
19777;BME280;10047;42.490;26.012;2023-01-28T00:34:24;99386.03;;;4.07;100.00
19777;BME280;10047;42.490;26.012;2023-01-28T00:36:49;99387.41;;;4.30;100.00
19777;BME280;10047;42.490;26.012;2023-01-28T00:39:23;99387.59;;;4.17;100.00
19777;BME280;10047;42.490;26.012;2023-01-28T00:41:50;99316.91;;;3.70;100.00
19777;BME280;10047;42.490;26.012;2023-01-28T00:44:17;99409.38;;;4.18;100.00
19777;BME280;10047;42.490;26.012;2023-01-28T00:46:42;99290.94;;;3.71;100.00
19777;BME280;10047;42.490;26.012;2023-01-28T00:49:08;99390.13;;;4.15;100.00
19777;BME280;10047;42.490;26.012;2023-01-28T00:51:34;99311.16;;;3.60;100.00
19777;BME280;10047;42.490;26.012;2023-01-28T00:53:59;99403.56;;;4.13;100.00
19777;BME280;10047;42.490;26.012;2023-01-28T00:56:25;99382.81;;;3.96;100.00
19777;BME280;10047;42.490;26.012;2023-01-28T00:58:50;99399.44;;;4.07;100.00
19777;BME280;10047;42.490;26.012;2023-01-28T01:01:22;99362.09;;;3.76;100.00
19777;BME280;10047;42.490;26.012;2023-01-28T01:03:48;99411.16;;;4.07;100.00
19777;BME280;10047;42.490;26.012;2023-01-28T01:06:40;99384.47;;;3.97;100.00
19777;BME280;10047;42.490;26.012;2023-01-28T01:09:09;99414.53;;;4.04;100.00
19777;BME280;10047;42.490;26.012;2023-01-28T01:11:35;99252.94;;;3.23;100.00
19777;BME280;10047;42.490;26.012;2023-01-28T01:14:00;99323.78;;;3.56;100.00
19777;BME280;10047;42.490;26.012;2023-01-28T01:16:30;99338.59;;;3.80;100.00
19777;BME280;10047;42.490;26.012;2023-01-28T01:19:00;99393.78;;;3.89;100.00
19777;BME280;10047;42.490;26.012;2023-01-28T01:21:29;99384.50;;;3.94;100.00
19777;BME280;10047;42.490;26.012;2023-01-28T01:23:55;99257.22;;;3.14;100.00
19777;BME280;10047;42.490;26.012;2023-01-28T01:26:21;99320.47;;;3.52;100.00
19777;BME280;10047;42.490;26.012;2023-01-28T01:28:47;99392.88;;;3.93;100.00
19777;BME280;10047;42.490;26.012;2023-01-28T01:31:14;99407.13;;;3.95;100.00
19777;BME280;10047;42.490;26.012;2023-01-28T01:33:41;99327.13;;;3.53;100.00
19777;BME280;10047;42.490;26.012;2023-01-28T01:36:07;99403.72;;;3.99;100.00
19777;BME280;10047;42.490;26.012;2023-01-28T01:38:33;99407.09;;;3.97;100.00
19777;BME280;10047;42.490;26.012;2023-01-28T01:41:01;99350.41;;;3.69;100.00
19777;BME280;10047;42.490;26.012;2023-01-28T01:46:20;99274.09;;;3.00;100.00
19777;BME280;10047;42.490;26.012;2023-01-28T01:48:47;99339.00;;;3.42;100.00
19777;BME280;10047;42.490;26.012;2023-01-28T01:51:16;99443.81;;;4.11;100.00
19777;BME280;10047;42.490;26.012;2023-01-28T01:53:45;99442.25;;;4.01;100.00
19777;BME280;10047;42.490;26.012;2023-01-28T01:56:15;99345.53;;;3.57;100.00
19777;BME280;10047;42.490;26.012;2023-01-28T01:58:44;99445.38;;;4.20;100.00
19777;BME280;10047;42.490;26.012;2023-01-28T02:01:12;99289.91;;;3.09;100.00
19777;BME280;10047;42.490;26.012;2023-01-28T02:03:54;99449.81;;;3.98;100.00
19777;BME280;10047;42.490;26.012;2023-01-28T02:06:22;99405.63;;;3.78;100.00
19777;BME280;10047;42.490;26.012;2023-01-28T02:08:47;99466.53;;;4.04;100.00
19777;BME280;10047;42.490;26.012;2023-01-28T02:11:13;99379.88;;;3.58;100.00
19777;BME280;10047;42.490;26.012;2023-01-28T02:13:50;99364.06;;;3.48;100.00
19777;BME280;10047;42.490;26.012;2023-01-28T02:16:16;99446.38;;;4.07;100.00
19777;BME280;10047;42.490;26.012;2023-01-28T02:18:43;99450.53;;;4.09;100.00
19777;BME280;10047;42.490;26.012;2023-01-28T02:21:24;99467.34;;;4.07;100.00
19777;BME280;10047;42.490;26.012;2023-01-28T02:24:31;99446.38;;;4.07;100.00
19777;BME280;10047;42.490;26.012;2023-01-28T02:27:23;99467.19;;;4.21;100.00
19777;BME280;10047;42.490;26.012;2023-01-28T02:29:54;99469.88;;;4.06;100.00
19777;BME280;10047;42.490;26.012;2023-01-28T02:32:54;99462.19;;;4.19;100.00
19777;BME280;10047;42.490;26.012;2023-01-28T02:35:28;99472.38;;;4.06;100.00
19777;BME280;10047;42.490;26.012;2023-01-28T02:38:07;99380.69;;;3.60;100.00
19777;BME280;10047;42.490;26.012;2023-01-28T02:40:37;99468.25;;;3.99;100.00
19777;BME280;10047;42.490;26.012;2023-01-28T02:43:42;99466.50;;;4.07;100.00
19777;BME280;10047;42.490;26.012;2023-01-28T02:49:33;99469.81;;;4.09;100.00
19777;BME280;10047;42.490;26.012;2023-01-28T02:55:31;99468.97;;;4.11;100.00
19777;BME280;10047;42.490;26.012;2023-01-28T03:03:32;99465.69;;;4.03;100.00
19777;BME280;10047;42.490;26.012;2023-01-28T03:06:02;99468.28;;;3.96;100.00
19777;BME280;10047;42.490;26.012;2023-01-28T03:08:53;99405.78;;;3.64;100.00
19777;BME280;10047;42.490;26.012;2023-01-28T03:11:43;99411.69;;;3.57;100.00
19777;BME280;10047;42.490;26.012;2023-01-28T03:14:29;99373.25;;;3.47;100.00
19777;BME280;10047;42.490;26.012;2023-01-28T03:17:24;99482.50;;;4.00;100.00
19777;BME280;10047;42.490;26.012;2023-01-28T03:20:10;99480.69;;;4.14;100.00
19777;BME280;10047;42.490;26.012;2023-01-28T03:22:56;99485.06;;;3.92;100.00
19777;BME280;10047;42.490;26.012;2023-01-28T03:25:43;99488.34;;;3.99;100.00
19777;BME280;10047;42.490;26.012;2023-01-28T03:28:30;99450.88;;;3.78;100.00
19777;BME280;10047;42.490;26.012;2023-01-28T03:31:17;99489.34;;;3.86;100.00
19777;BME280;10047;42.490;26.012;2023-01-28T03:34:03;99421.81;;;3.49;100.00
19777;BME280;10047;42.490;26.012;2023-01-28T03:36:48;99468.38;;;3.85;100.00
19777;BME280;10047;42.490;26.012;2023-01-28T03:39:25;99337.00;;;2.80;100.00
19777;BME280;10047;42.490;26.012;2023-01-28T03:42:04;99411.03;;;3.35;100.00
19777;BME280;10047;42.490;26.012;2023-01-28T03:44:31;99496.78;;;3.95;100.00
19777;BME280;10047;42.490;26.012;2023-01-28T03:47:16;99410.25;;;3.30;100.00
19777;BME280;10047;42.490;26.012;2023-01-28T03:49:43;99511.91;;;3.90;100.00
19777;BME280;10047;42.490;26.012;2023-01-28T03:52:20;99507.69;;;3.94;100.00
19777;BME280;10047;42.490;26.012;2023-01-28T03:54:46;99429.38;;;3.48;100.00
19777;BME280;10047;42.490;26.012;2023-01-28T03:57:15;99357.03;;;2.89;100.00
19777;BME280;10047;42.490;26.012;2023-01-28T03:59:41;99525.34;;;3.85;100.00
19777;BME280;10047;42.490;26.012;2023-01-28T04:02:07;99437.59;;;3.64;100.00
19777;BME280;10047;42.490;26.012;2023-01-28T04:04:33;99505.19;;;3.91;100.00
19777;BME280;10047;42.490;26.012;2023-01-28T04:06:59;99458.63;;;3.53;100.00
19777;BME280;10047;42.490;26.012;2023-01-28T04:09:25;99455.25;;;3.54;100.00
19777;BME280;10047;42.490;26.012;2023-01-28T04:11:50;99464.47;;;3.54;100.00
19777;BME280;10047;42.490;26.012;2023-01-28T04:14:16;99507.88;;;3.71;100.00
19777;BME280;10047;42.490;26.012;2023-01-28T04:16:42;99465.47;;;3.33;100.00
19777;BME280;10047;42.490;26.012;2023-01-28T04:19:08;99495.53;;;3.44;100.00
19777;BME280;10047;42.490;26.012;2023-01-28T04:21:35;99471.31;;;3.37;100.00
19777;BME280;10047;42.490;26.012;2023-01-28T04:24:00;99433.03;;;3.06;100.00
19777;BME280;10047;42.490;26.012;2023-01-28T04:26:26;99546.22;;;3.97;100.00
19777;BME280;10047;42.490;26.012;2023-01-28T04:28:52;99550.59;;;3.71;100.00
19777;BME280;10047;42.490;26.012;2023-01-28T04:31:17;99532.22;;;3.65;100.00
19777;BME280;10047;42.490;26.012;2023-01-28T04:33:43;99438.75;;;3.23;100.00
19777;BME280;10047;42.490;26.012;2023-01-28T04:36:08;99537.81;;;3.97;100.00
19777;BME280;10047;42.490;26.012;2023-01-28T04:38:33;99464.66;;;3.31;100.00
19777;BME280;10047;42.490;26.012;2023-01-28T04:40:59;99540.53;;;3.76;100.00
19777;BME280;10047;42.490;26.012;2023-01-28T04:43:24;99447.28;;;3.01;100.00
19777;BME280;10047;42.490;26.012;2023-01-28T04:45:50;99393.91;;;2.78;100.00
19777;BME280;10047;42.490;26.012;2023-01-28T04:48:16;99548.81;;;3.87;100.00
19777;BME280;10047;42.490;26.012;2023-01-28T04:50:42;99548.09;;;3.70;100.00
19777;BME280;10047;42.490;26.012;2023-01-28T04:53:07;99560.72;;;3.64;100.00
19777;BME280;10047;42.490;26.012;2023-01-28T04:55:33;99549.88;;;3.57;100.00
19777;BME280;10047;42.490;26.012;2023-01-28T04:57:58;99558.88;;;3.85;100.00
19777;BME280;10047;42.490;26.012;2023-01-28T05:00:24;99494.75;;;3.37;100.00
19777;BME280;10047;42.490;26.012;2023-01-28T05:02:49;99494.91;;;3.16;100.00
19777;BME280;10047;42.490;26.012;2023-01-28T05:05:15;99554.97;;;3.46;100.00
19777;BME280;10047;42.490;26.012;2023-01-28T05:07:40;99506.66;;;3.13;100.00
19777;BME280;10047;42.490;26.012;2023-01-28T05:10:06;99584.13;;;3.69;100.00
19777;BME280;10047;42.490;26.012;2023-01-28T05:12:32;99593.41;;;3.62;100.00
19777;BME280;10047;42.490;26.012;2023-01-28T05:14:58;99497.50;;;3.00;100.00
19777;BME280;10047;42.490;26.012;2023-01-28T05:17:27;99609.31;;;3.57;100.00
19777;BME280;10047;42.490;26.012;2023-01-28T05:19:53;99578.53;;;3.26;100.00
19777;BME280;10047;42.490;26.012;2023-01-28T05:22:18;99526.78;;;2.98;100.00
19777;BME280;10047;42.490;26.012;2023-01-28T05:24:44;99603.38;;;3.73;100.00
19777;BME280;10047;42.490;26.012;2023-01-28T05:27:10;99592.66;;;3.46;100.00
19777;BME280;10047;42.490;26.012;2023-01-28T05:29:35;99596.06;;;3.36;100.00
19777;BME280;10047;42.490;26.012;2023-01-28T05:32:01;99516.78;;;2.95;100.00
19777;BME280;10047;42.490;26.012;2023-01-28T05:34:26;99565.13;;;3.27;100.00
19777;BME280;10047;42.490;26.012;2023-01-28T05:36:52;99604.31;;;3.55;100.00
19777;BME280;10047;42.490;26.012;2023-01-28T05:39:17;99614.38;;;3.53;100.00
19777;BME280;10047;42.490;26.012;2023-01-28T05:41:42;99610.13;;;3.66;100.00
19777;BME280;10047;42.490;26.012;2023-01-28T05:44:08;99553.25;;;3.56;100.00
19777;BME280;10047;42.490;26.012;2023-01-28T05:46:33;99599.22;;;3.66;100.00
19777;BME280;10047;42.490;26.012;2023-01-28T05:48:59;99615.13;;;3.69;100.00
19777;BME280;10047;42.490;26.012;2023-01-28T05:51:24;99615.97;;;3.67;100.00
19777;BME280;10047;42.490;26.012;2023-01-28T05:53:49;99614.25;;;3.75;100.00
19777;BME280;10047;42.490;26.012;2023-01-28T05:56:15;99596.03;;;3.42;100.00
19777;BME280;10047;42.490;26.012;2023-01-28T05:58:40;99626.09;;;3.58;100.00
19777;BME280;10047;42.490;26.012;2023-01-28T06:01:06;99620.16;;;3.69;100.00
19777;BME280;10047;42.490;26.012;2023-01-28T06:03:31;99607.72;;;3.49;100.00
19777;BME280;10047;42.490;26.012;2023-01-28T06:05:56;99623.63;;;3.47;100.00
19777;BME280;10047;42.490;26.012;2023-01-28T06:08:22;99621.94;;;3.52;100.00
19777;BME280;10047;42.490;26.012;2023-01-28T06:10:47;99523.44;;;2.97;100.00
19777;BME280;10047;42.490;26.012;2023-01-28T06:13:12;99568.56;;;3.09;100.00
19777;BME280;10047;42.490;26.012;2023-01-28T06:15:38;99480.13;;;2.60;100.00
19777;BME280;10047;42.490;26.012;2023-01-28T06:18:03;99551.06;;;3.00;100.00
19777;BME280;10047;42.490;26.012;2023-01-28T06:20:29;99657.09;;;3.49;100.00
19777;BME280;10047;42.490;26.012;2023-01-28T06:22:54;99569.44;;;3.02;100.00
19777;BME280;10047;42.490;26.012;2023-01-28T06:25:19;99639.53;;;3.47;100.00
19777;BME280;10047;42.490;26.012;2023-01-28T06:27:45;99663.88;;;3.38;100.00
19777;BME280;10047;42.490;26.012;2023-01-28T06:30:11;99561.13;;;2.93;100.00
19777;BME280;10047;42.490;26.012;2023-01-28T06:32:36;99679.72;;;3.53;100.00
19777;BME280;10047;42.490;26.012;2023-01-28T06:35:02;99679.66;;;3.63;100.00
19777;BME280;10047;42.490;26.012;2023-01-28T06:37:28;99658.75;;;3.54;100.00
19777;BME280;10047;42.490;26.012;2023-01-28T06:39:53;99622.88;;;3.34;100.00
19777;BME280;10047;42.490;26.012;2023-01-28T06:42:18;99680.56;;;3.49;100.00
19777;BME280;10047;42.490;26.012;2023-01-28T06:44:44;99601.13;;;3.27;100.00
19777;BME280;10047;42.490;26.012;2023-01-28T06:47:09;99673.03;;;3.49;100.00
19777;BME280;10047;42.490;26.012;2023-01-28T06:49:36;99617.09;;;3.19;100.00
19777;BME280;10047;42.490;26.012;2023-01-28T06:52:01;99703.13;;;3.62;100.00
19777;BME280;10047;42.490;26.012;2023-01-28T06:54:28;99607.91;;;3.10;100.00
19777;BME280;10047;42.490;26.012;2023-01-28T06:56:54;99546.84;;;2.99;100.00
19777;BME280;10047;42.490;26.012;2023-01-28T06:59:19;99720.59;;;3.83;100.00
19777;BME280;10047;42.490;26.012;2023-01-28T07:01:45;99705.66;;;3.57;100.00
19777;BME280;10047;42.490;26.012;2023-01-28T07:04:10;99704.84;;;3.47;100.00
19777;BME280;10047;42.490;26.012;2023-01-28T07:06:35;99658.84;;;3.42;100.00
19777;BME280;10047;42.490;26.012;2023-01-28T07:09:01;99728.94;;;3.89;100.00
19777;BME280;10047;42.490;26.012;2023-01-28T07:11:26;99727.31;;;3.84;100.00
19777;BME280;10047;42.490;26.012;2023-01-28T07:13:52;99728.88;;;3.98;100.00
19777;BME280;10047;42.490;26.012;2023-01-28T07:16:17;99572.72;;;3.18;100.00
19777;BME280;10047;42.490;26.012;2023-01-28T07:18:42;99636.19;;;3.48;100.00
19777;BME280;10047;42.490;26.012;2023-01-28T07:21:08;99645.38;;;3.49;100.00
19777;BME280;10047;42.490;26.012;2023-01-28T07:23:33;99582.78;;;3.16;100.00
19777;BME280;10047;42.490;26.012;2023-01-28T07:26:03;99726.38;;;4.00;100.00
19777;BME280;10047;42.490;26.012;2023-01-28T07:28:29;99661.16;;;3.73;100.00
19777;BME280;10047;42.490;26.012;2023-01-28T07:30:54;99748.81;;;4.31;100.00
19777;BME280;10047;42.490;26.012;2023-01-28T07:33:20;99649.34;;;3.91;100.00
19777;BME280;10047;42.490;26.012;2023-01-28T07:35:47;99678.72;;;3.86;100.00
19777;BME280;10047;42.490;26.012;2023-01-28T07:38:13;99745.50;;;4.22;100.00
19777;BME280;10047;42.490;26.012;2023-01-28T07:40:38;99657.81;;;3.74;100.00
19777;BME280;10047;42.490;26.012;2023-01-28T07:43:04;99769.72;;;4.38;100.00
19777;BME280;10047;42.490;26.012;2023-01-28T07:45:31;99748.72;;;4.42;100.00
19777;BME280;10047;42.490;26.012;2023-01-28T07:47:58;99672.72;;;4.02;100.00
19777;BME280;10047;42.490;26.012;2023-01-28T07:50:25;99759.50;;;4.61;100.00
19777;BME280;10047;42.490;26.012;2023-01-28T07:52:51;99763.78;;;4.50;100.00
19777;BME280;10047;42.490;26.012;2023-01-28T07:55:16;99775.47;;;4.54;100.00
19777;BME280;10047;42.490;26.012;2023-01-28T07:57:49;99770.56;;;4.40;100.00
19777;BME280;10047;42.490;26.012;2023-01-28T08:00:15;99696.97;;;4.11;100.00
19777;BME280;10047;42.490;26.012;2023-01-28T08:02:40;99766.38;;;4.36;100.00
19777;BME280;10047;42.490;26.012;2023-01-28T08:05:09;99693.72;;;3.95;100.00
19777;BME280;10047;42.490;26.012;2023-01-28T08:07:34;99707.88;;;4.10;100.00
19777;BME280;10047;42.490;26.012;2023-01-28T08:10:00;99794.69;;;4.68;100.00
19777;BME280;10047;42.490;26.012;2023-01-28T08:12:25;99738.69;;;4.39;100.00
19777;BME280;10047;42.490;26.012;2023-01-28T08:14:51;99698.63;;;4.10;100.00
19777;BME280;10047;42.490;26.012;2023-01-28T08:17:16;99698.69;;;4.07;100.00
19777;BME280;10047;42.490;26.012;2023-01-28T08:19:41;99626.00;;;3.70;100.00
19777;BME280;10047;42.490;26.012;2023-01-28T08:22:07;99713.00;;;3.98;100.00
19777;BME280;10047;42.490;26.012;2023-01-28T08:24:32;99785.44;;;4.73;100.00
19777;BME280;10047;42.490;26.012;2023-01-28T08:26:57;99696.19;;;3.98;100.00
19777;BME280;10047;42.490;26.012;2023-01-28T08:29:23;99783.78;;;4.66;100.00
19777;BME280;10047;42.490;26.012;2023-01-28T08:31:48;99811.53;;;4.63;100.00
19777;BME280;10047;42.490;26.012;2023-01-28T08:34:14;99730.50;;;4.11;100.00
19777;BME280;10047;42.490;26.012;2023-01-28T08:36:39;99729.69;;;4.08;100.00
19777;BME280;10047;42.490;26.012;2023-01-28T08:39:04;99805.59;;;4.66;100.00
19777;BME280;10047;42.490;26.012;2023-01-28T08:41:30;99808.84;;;4.80;100.00
19777;BME280;10047;42.490;26.012;2023-01-28T08:43:55;99651.75;;;4.08;100.00
19777;BME280;10047;42.490;26.012;2023-01-28T08:46:21;99821.34;;;4.95;100.00
19777;BME280;10047;42.490;26.012;2023-01-28T08:48:49;99741.22;;;4.39;100.00
19777;BME280;10047;42.490;26.012;2023-01-28T08:51:14;99748.06;;;4.14;100.00
19777;BME280;10047;42.490;26.012;2023-01-28T08:53:40;99737.94;;;4.26;100.00
19777;BME280;10047;42.490;26.012;2023-01-28T08:56:06;99814.69;;;4.86;100.00
19777;BME280;10047;42.490;26.012;2023-01-28T08:58:31;99799.53;;;4.89;100.00
19777;BME280;10047;42.490;26.012;2023-01-28T09:00:56;99718.72;;;4.16;100.00
19777;BME280;10047;42.490;26.012;2023-01-28T09:03:22;99720.34;;;4.26;100.00
19777;BME280;10047;42.490;26.012;2023-01-28T09:05:47;99802.19;;;4.74;100.00
19777;BME280;10047;42.490;26.012;2023-01-28T09:08:14;99670.22;;;4.01;100.00
19777;BME280;10047;42.490;26.012;2023-01-28T09:10:40;99812.19;;;4.82;100.00
19777;BME280;10047;42.490;26.012;2023-01-28T09:13:14;99656.84;;;3.96;100.00
19777;BME280;10047;42.490;26.012;2023-01-28T09:15:40;99737.81;;;4.48;100.00
19777;BME280;10047;42.490;26.012;2023-01-28T09:18:06;99807.09;;;4.92;100.00
19777;BME280;10047;42.490;26.012;2023-01-28T09:20:32;99800.38;;;4.91;100.00
19777;BME280;10047;42.490;26.012;2023-01-28T09:22:58;99816.94;;;5.18;100.00
19777;BME280;10047;42.490;26.012;2023-01-28T09:25:24;99802.22;;;4.70;100.00
19777;BME280;10047;42.490;26.012;2023-01-28T09:27:49;99814.31;;;5.27;100.00
19777;BME280;10047;42.490;26.012;2023-01-28T09:30:15;99706.97;;;4.21;100.00
19777;BME280;10047;42.490;26.012;2023-01-28T09:32:41;99716.94;;;4.32;100.00
19777;BME280;10047;42.490;26.012;2023-01-28T09:35:06;99784.50;;;4.82;100.00
19777;BME280;10047;42.490;26.012;2023-01-28T09:37:32;99816.28;;;4.98;100.00
19777;BME280;10047;42.490;26.012;2023-01-28T09:39:58;99801.13;;;5.02;100.00
19777;BME280;10047;42.490;26.012;2023-01-28T09:47:46;99825.25;;;5.26;100.00
19777;BME280;10047;42.490;26.012;2023-01-28T09:50:19;99813.72;;;4.99;100.00
19777;BME280;10047;42.490;26.012;2023-01-28T09:52:48;99821.44;;;4.80;100.00
19777;BME280;10047;42.490;26.012;2023-01-28T09:55:32;99671.69;;;4.26;100.00
19777;BME280;10047;42.490;26.012;2023-01-28T09:57:58;99720.88;;;4.65;100.00
19777;BME280;10047;42.490;26.012;2023-01-28T10:09:08;99816.41;;;5.72;100.00
19777;BME280;10047;42.490;26.012;2023-01-28T10:11:59;99807.31;;;5.55;100.00
19777;BME280;10047;42.490;26.012;2023-01-28T10:14:49;99742.88;;;5.31;100.00
19777;BME280;10047;42.490;26.012;2023-01-28T10:17:33;99715.03;;;4.60;100.00
19777;BME280;10047;42.490;26.012;2023-01-28T10:20:27;99802.13;;;6.40;100.00
19777;BME280;10047;42.490;26.012;2023-01-28T10:23:10;99796.44;;;5.51;100.00
19777;BME280;10047;42.490;26.012;2023-01-28T10:25:40;99717.81;;;5.92;100.00
19777;BME280;10047;42.490;26.012;2023-01-28T10:28:35;99801.66;;;5.33;100.00
19777;BME280;10047;42.490;26.012;2023-01-28T10:31:01;99819.38;;;5.25;100.00
19777;BME280;10047;42.490;26.012;2023-01-28T10:35:53;99722.66;;;4.51;100.00
19777;BME280;10047;42.490;26.012;2023-01-28T10:38:22;99724.28;;;4.56;100.00
19777;BME280;10047;42.490;26.012;2023-01-28T10:40:49;99667.50;;;4.28;100.00
19777;BME280;10047;42.490;26.012;2023-01-28T10:43:24;99831.34;;;5.02;100.00
19777;BME280;10047;42.490;26.012;2023-01-28T10:46:48;99805.78;;;6.74;100.00
19777;BME280;10047;42.490;26.012;2023-01-28T10:49:09;99768.53;;;4.86;100.00
19777;BME280;10047;42.490;26.012;2023-01-28T10:51:38;99738.91;;;5.12;100.00
19777;BME280;10047;42.490;26.012;2023-01-28T10:54:22;99715.72;;;4.81;100.00
19777;BME280;10047;42.490;26.012;2023-01-28T10:56:59;99830.25;;;5.29;100.00
19777;BME280;10047;42.490;26.012;2023-01-28T10:59:32;99790.53;;;5.54;100.00
19777;BME280;10047;42.490;26.012;2023-01-28T11:02:04;99818.31;;;5.49;100.00
19777;BME280;10047;42.490;26.012;2023-01-28T11:04:43;99735.53;;;5.14;100.00
19777;BME280;10047;42.490;26.012;2023-01-28T11:07:19;99763.94;;;5.28;100.00
19777;BME280;10047;42.490;26.012;2023-01-28T11:09:50;99838.50;;;5.48;100.00
19777;BME280;10047;42.490;26.012;2023-01-28T11:14:59;99827.28;;;5.73;100.00
19777;BME280;10047;42.490;26.012;2023-01-28T11:17:30;99837.78;;;6.12;100.00
19777;BME280;10047;42.490;26.012;2023-01-28T11:19:58;99744.13;;;5.70;100.00
19777;BME280;10047;42.490;26.012;2023-01-28T11:22:41;99807.81;;;5.90;100.00
19777;BME280;10047;42.490;26.012;2023-01-28T11:25:15;99827.41;;;6.91;100.00
19777;BME280;10047;42.490;26.012;2023-01-28T11:27:46;99807.59;;;6.08;100.00
19777;BME280;10047;42.490;26.012;2023-01-28T11:30:32;99825.66;;;6.39;100.00
19777;BME280;10047;42.490;26.012;2023-01-28T11:35:29;99803.38;;;6.07;100.00
19777;BME280;10047;42.490;26.012;2023-01-28T11:37:56;99844.34;;;6.27;100.00
19777;BME280;10047;42.490;26.012;2023-01-28T11:40:22;99742.38;;;5.75;100.00
19777;BME280;10047;42.490;26.012;2023-01-28T11:42:53;99834.56;;;6.03;100.00
19777;BME280;10047;42.490;26.012;2023-01-28T11:48:06;99747.47;;;5.72;100.00
19777;BME280;10047;42.490;26.012;2023-01-28T12:01:46;99848.78;;;6.08;100.00
19777;BME280;10047;42.490;26.012;2023-01-28T12:04:21;99730.31;;;5.29;100.00
19777;BME280;10047;42.490;26.012;2023-01-28T12:09:59;99847.22;;;5.97;100.00
19777;BME280;10047;42.490;26.012;2023-01-28T12:15:47;99854.13;;;5.81;100.00
19777;BME280;10047;42.490;26.012;2023-01-28T12:21:10;99767.88;;;5.52;100.00
19777;BME280;10047;42.490;26.012;2023-01-28T12:26:44;99777.88;;;5.60;100.00
19777;BME280;10047;42.490;26.012;2023-01-28T12:29:37;99710.41;;;5.05;100.00
19777;BME280;10047;42.490;26.012;2023-01-28T12:37:59;99877.56;;;5.94;100.00
19777;BME280;10047;42.490;26.012;2023-01-28T12:40:37;99882.53;;;5.98;100.00
19777;BME280;10047;42.490;26.012;2023-01-28T12:43:10;99869.22;;;5.86;100.00
19777;BME280;10047;42.490;26.012;2023-01-28T12:45:56;99849.94;;;5.79;100.00
19777;BME280;10047;42.490;26.012;2023-01-28T12:51:07;99865.16;;;5.70;100.00
19777;BME280;10047;42.490;26.012;2023-01-28T12:54:00;99898.56;;;5.96;100.00
19777;BME280;10047;42.490;26.012;2023-01-28T12:56:32;99899.09;;;6.21;100.00
19777;BME280;10047;42.490;26.012;2023-01-28T12:59:07;99826.75;;;5.45;100.00
19777;BME280;10047;42.490;26.012;2023-01-28T13:04:17;99826.00;;;5.39;100.00
19777;BME280;10047;42.490;26.012;2023-01-28T13:06:50;99906.94;;;5.96;100.00
19777;BME280;10047;42.490;26.012;2023-01-28T13:09:21;99906.06;;;6.02;100.00
19777;BME280;10047;42.490;26.012;2023-01-28T13:11:50;99908.47;;;6.11;100.00
19777;BME280;10047;42.490;26.012;2023-01-28T13:14:17;99927.63;;;6.27;100.00
19777;BME280;10047;42.490;26.012;2023-01-28T13:16:44;99890.16;;;5.95;100.00
19777;BME280;10047;42.490;26.012;2023-01-28T13:21:45;99859.31;;;5.68;100.00
19777;BME280;10047;42.490;26.012;2023-01-28T13:26:44;99928.94;;;5.85;100.00
19777;BME280;10047;42.490;26.012;2023-01-28T13:31:43;99872.91;;;5.52;100.00
19777;BME280;10047;42.490;26.012;2023-01-28T13:37:16;99907.16;;;5.74;100.00
19777;BME280;10047;42.490;26.012;2023-01-28T13:39:51;99939.00;;;5.82;100.00
19777;BME280;10047;42.490;26.012;2023-01-28T13:42:30;99949.81;;;5.99;100.00
19777;BME280;10047;42.490;26.012;2023-01-28T13:47:46;99955.41;;;6.24;100.00
19777;BME280;10047;42.490;26.012;2023-01-28T13:50:24;99871.78;;;5.80;100.00
19777;BME280;10047;42.490;26.012;2023-01-28T13:53:16;99965.41;;;6.35;100.00
19777;BME280;10047;42.490;26.012;2023-01-28T13:55:45;99966.44;;;6.17;100.00
19777;BME280;10047;42.490;26.012;2023-01-28T13:59:12;99963.13;;;6.12;100.00
19777;BME280;10047;42.490;26.012;2023-01-28T14:12:24;99976.81;;;5.90;100.00
19777;BME280;10047;42.490;26.012;2023-01-28T14:17:41;99896.66;;;5.26;100.00
19777;BME280;10047;42.490;26.012;2023-01-28T14:20:24;99907.75;;;5.04;100.00
19777;BME280;10047;42.490;26.012;2023-01-28T14:22:50;99975.03;;;5.99;100.00
19777;BME280;10047;42.490;26.012;2023-01-28T14:25:28;99954.47;;;5.43;100.00
19777;BME280;10047;42.490;26.012;2023-01-28T14:27:59;99888.28;;;5.24;100.00
19777;BME280;10047;42.490;26.012;2023-01-28T14:30:36;99886.72;;;5.08;100.00
19777;BME280;10047;42.490;26.012;2023-01-28T14:33:08;99879.84;;;5.27;100.00
19777;BME280;10047;42.490;26.012;2023-01-28T14:35:38;99895.97;;;5.08;100.00
19777;BME280;10047;42.490;26.012;2023-01-28T14:38:11;99982.88;;;5.66;100.00
19777;BME280;10047;42.490;26.012;2023-01-28T14:40:39;99988.72;;;5.70;100.00
19777;BME280;10047;42.490;26.012;2023-01-28T14:43:07;99907.56;;;5.27;100.00
19777;BME280;10047;42.490;26.012;2023-01-28T14:45:50;99839.25;;;4.57;100.00